Terminal Aerodrome Forecast
Issued by NWS

Home | Current Version | Previous Version | Text Only | Print | Product List | Glossary On
Versions: 1 2 3 4 5 6 7 8 9 10 11 12 13 14 15 16 17 18 19
000
FTUS46 KPQR 231139
TAFONP
TAF
KONP 231139Z 2312/2412 20011KT 2SM -DZ BR BKN003 OVC015
      TEMPO 2312/2316 3/4SM -RADZ
     FM231800 22012KT P6SM -RADZ SCT007 BKN010 OVC040
     FM232200 22011KT P6SM VCSH SCT020 BKN040 OVC060
     FM240300 21005KT P6SM BKN020 OVC045=

USA.gov is the U.S. government's official web portal to all federal, state and local government web resources and services.